createdAt,value
2023-04-27T00:02:13.333Z,2.63
2023-04-27T00:04:41.697Z,3.00
2023-04-27T00:07:09.666Z,2.30
2023-04-27T00:09:37.414Z,3.17
2023-04-27T00:12:06.331Z,2.50
2023-04-27T00:14:34.159Z,3.23
2023-04-27T00:17:03.331Z,2.67
2023-04-27T00:19:31.383Z,2.60
2023-04-27T00:22:00.072Z,2.87
2023-04-27T00:24:28.013Z,2.83
2023-04-27T00:26:55.816Z,2.70
2023-04-27T00:29:23.581Z,2.80
2023-04-27T00:31:51.425Z,3.00
2023-04-27T00:34:20.803Z,3.13
2023-04-27T00:36:48.571Z,3.13
2023-04-27T00:39:16.772Z,3.10
2023-04-27T00:41:44.571Z,3.03
2023-04-27T00:44:12.442Z,3.13
2023-04-27T00:46:40.223Z,3.27
2023-04-27T00:49:07.995Z,2.90
2023-04-27T00:51:37.443Z,3.20
2023-04-27T00:54:06.082Z,3.40
2023-04-27T00:56:33.885Z,3.23
2023-04-27T00:59:02.074Z,3.00
2023-04-27T01:01:31.081Z,3.03
2023-04-27T01:03:59.084Z,3.27
2023-04-27T01:06:28.290Z,3.03
2023-04-27T01:08:57.616Z,2.90
2023-04-27T01:11:25.486Z,3.33
2023-04-27T01:13:53.746Z,3.40
2023-04-27T01:16:21.690Z,3.10
2023-04-27T01:18:49.604Z,2.83
2023-04-27T01:21:17.296Z,3.30
2023-04-27T01:23:46.649Z,2.97
2023-04-27T01:26:16.409Z,3.20
2023-04-27T01:28:44.488Z,2.87
2023-04-27T01:31:12.563Z,3.00
2023-04-27T01:33:40.834Z,3.17
2023-04-27T01:36:09.733Z,2.63
2023-04-27T01:38:38.076Z,3.10
2023-04-27T01:41:09.255Z,2.87
2023-04-27T01:43:38.134Z,2.30
2023-04-27T01:46:09.520Z,2.90
2023-04-27T01:48:37.462Z,2.40
2023-04-27T01:51:05.274Z,2.60
2023-04-27T01:53:33.285Z,2.97
2023-04-27T01:56:01.412Z,2.83
2023-04-27T01:58:30.615Z,2.63
2023-04-27T02:00:58.436Z,3.00
2023-04-27T02:03:26.221Z,2.77
2023-04-27T02:05:54.139Z,2.77
2023-04-27T02:08:21.889Z,2.57
2023-04-27T02:10:49.741Z,2.80
2023-04-27T02:13:17.537Z,2.80
2023-04-27T02:15:46.722Z,2.67
2023-04-27T02:18:15.746Z,2.73
2023-04-27T02:20:43.468Z,2.90
2023-04-27T02:23:11.688Z,2.60
2023-04-27T02:25:42.900Z,2.70
2023-04-27T02:28:10.970Z,2.70
2023-04-27T02:30:39.206Z,2.50
2023-04-27T02:33:08.403Z,2.23
2023-04-27T02:35:36.232Z,2.17
2023-04-27T02:38:03.933Z,2.40
2023-04-27T02:40:31.734Z,1.93
2023-04-27T02:42:59.464Z,2.27
2023-04-27T02:45:28.473Z,2.60
2023-04-27T02:47:56.365Z,2.07
2023-04-27T02:50:25.818Z,1.97
2023-04-27T02:52:53.682Z,1.90
2023-04-27T02:55:21.497Z,1.87
2023-04-27T02:57:49.213Z,1.97
2023-04-27T03:00:17.515Z,1.80
2023-04-27T03:02:45.337Z,2.27
2023-04-27T03:05:13.266Z,1.50
2023-04-27T03:07:42.440Z,1.67
2023-04-27T03:10:10.580Z,1.90
2023-04-27T03:12:38.388Z,1.93
2023-04-27T03:15:07.851Z,2.10
2023-04-27T03:17:35.994Z,1.93
2023-04-27T03:20:04.902Z,2.17
2023-04-27T03:22:32.776Z,2.30
2023-04-27T03:25:02.117Z,2.17
2023-04-27T03:27:29.903Z,2.17
2023-04-27T03:29:57.622Z,2.20
2023-04-27T03:32:26.061Z,2.17
2023-04-27T03:34:53.775Z,1.90
2023-04-27T03:37:21.576Z,1.80
2023-04-27T03:39:49.336Z,2.23
2023-04-27T03:42:18.484Z,2.60
2023-04-27T03:44:48.282Z,2.67
2023-04-27T03:47:16.139Z,2.53
2023-04-27T03:49:43.914Z,2.20
2023-04-27T03:52:11.634Z,2.20
2023-04-27T03:54:39.395Z,1.90
2023-04-27T03:57:07.354Z,2.33
2023-04-27T03:59:36.493Z,2.10
2023-04-27T04:02:05.601Z,2.13
2023-04-27T04:04:33.679Z,2.30
2023-04-27T04:07:01.502Z,2.43
2023-04-27T04:09:29.254Z,2.33
2023-04-27T04:11:57.872Z,2.13
2023-04-27T04:14:25.903Z,2.40
2023-04-27T04:16:54.989Z,2.20
2023-04-27T04:19:22.829Z,2.23
2023-04-27T04:21:50.747Z,2.50
2023-04-27T04:24:18.778Z,2.33
2023-04-27T04:26:47.237Z,2.33
2023-04-27T04:29:15.336Z,2.47
2023-04-27T04:31:43.470Z,2.60
2023-04-27T04:34:12.867Z,2.17
2023-04-27T04:36:40.621Z,2.20
2023-04-27T04:39:08.525Z,2.03
2023-04-27T04:41:36.561Z,2.00
2023-04-27T04:44:04.467Z,2.40
2023-04-27T04:46:32.396Z,2.40
2023-04-27T04:49:00.180Z,2.20
2023-04-27T04:51:29.331Z,2.50
2023-04-27T04:53:57.191Z,2.43
2023-04-27T04:56:25.898Z,2.30
2023-04-27T04:58:53.765Z,2.77
2023-04-27T05:01:21.842Z,2.37
2023-04-27T05:03:49.840Z,2.30
2023-04-27T05:06:17.745Z,2.20
2023-04-27T05:08:46.940Z,2.13
2023-04-27T05:11:14.716Z,2.50
2023-04-27T05:13:42.784Z,2.63
2023-04-27T05:16:10.812Z,2.57
2023-04-27T05:18:38.596Z,2.57
2023-04-27T05:21:06.408Z,2.33
2023-04-27T05:23:34.111Z,2.17
2023-04-27T05:26:03.277Z,2.53
2023-04-27T05:28:31.254Z,2.43
2023-04-27T05:30:59.112Z,2.63
2023-04-27T05:33:26.964Z,2.57
2023-04-27T05:35:54.686Z,2.70
2023-04-27T05:38:22.472Z,2.73
2023-04-27T05:40:55.774Z,3.30
2023-04-27T05:43:27.832Z,2.40
2023-04-27T05:45:55.989Z,2.90
2023-04-27T05:48:23.812Z,2.40
2023-04-27T05:50:59.684Z,2.93
2023-04-27T05:53:27.368Z,2.90
2023-04-27T05:55:55.326Z,3.23
2023-04-27T05:58:24.559Z,2.43
2023-04-27T06:00:52.667Z,2.63
2023-04-27T06:03:20.697Z,2.80
2023-04-27T06:05:48.562Z,2.30
2023-04-27T06:08:16.347Z,2.63
2023-04-27T06:10:44.143Z,3.00
2023-04-27T06:13:11.907Z,2.73
2023-04-27T06:15:41.106Z,2.73
2023-04-27T06:18:08.915Z,2.30
2023-04-27T06:20:36.988Z,2.27
2023-04-27T06:23:05.154Z,2.57
2023-04-27T06:25:32.899Z,2.20
2023-04-27T06:28:00.697Z,2.30
2023-04-27T06:30:28.438Z,2.80
2023-04-27T06:32:57.709Z,2.43
2023-04-27T06:35:25.643Z,2.43
2023-04-27T06:37:53.458Z,2.40
2023-04-27T06:40:23.931Z,2.60
2023-04-27T06:42:51.824Z,1.93
2023-04-27T06:45:19.596Z,2.70
2023-04-27T06:47:47.496Z,2.30
2023-04-27T06:50:17.369Z,2.30
2023-04-27T06:52:45.225Z,2.13
2023-04-27T06:55:13.099Z,2.13
2023-04-27T06:57:40.834Z,2.30
2023-04-27T07:00:09.802Z,2.10
2023-04-27T07:02:38.804Z,2.30
2023-04-27T07:05:07.003Z,2.07
2023-04-27T07:07:36.277Z,1.90
2023-04-27T07:10:04.410Z,2.20
2023-04-27T07:12:32.167Z,2.30
2023-04-27T07:14:59.871Z,1.83
2023-04-27T07:17:27.667Z,2.20
2023-04-27T07:19:55.518Z,2.47
2023-04-27T07:22:23.284Z,2.07
2023-04-27T07:24:52.704Z,2.20
2023-04-27T07:27:20.471Z,2.40
2023-04-27T07:29:48.387Z,2.43
2023-04-27T07:32:16.430Z,2.00
2023-04-27T07:34:52.884Z,2.03
2023-04-27T07:37:22.291Z,1.70
2023-04-27T07:39:50.374Z,2.20
2023-04-27T07:42:19.728Z,2.00
2023-04-27T07:44:47.478Z,1.90
2023-04-27T07:47:15.395Z,1.80
2023-04-27T07:49:46.470Z,2.00
2023-04-27T07:52:14.364Z,2.50
2023-04-27T07:54:42.426Z,1.83
2023-04-27T07:57:11.762Z,1.93
2023-04-27T07:59:41.479Z,1.90
2023-04-27T08:02:19.134Z,2.00
2023-04-27T08:04:48.200Z,1.73
2023-04-27T08:07:17.574Z,1.70
2023-04-27T08:09:45.698Z,1.90
2023-04-27T08:12:13.497Z,2.30
2023-04-27T08:14:42.585Z,1.70
2023-04-27T08:17:11.397Z,1.80
2023-04-27T08:19:39.246Z,1.93
2023-04-27T08:22:07.094Z,1.53
2023-04-27T08:24:34.897Z,1.80
2023-04-27T08:27:03.361Z,1.80
2023-04-27T08:29:31.434Z,2.03
2023-04-27T08:32:02.781Z,1.90
2023-04-27T08:34:30.745Z,1.80
2023-04-27T08:36:58.541Z,1.50
2023-04-27T08:39:26.679Z,1.63
2023-04-27T08:41:54.461Z,1.40
2023-04-27T08:44:22.318Z,1.80
2023-04-27T08:46:50.942Z,2.00
2023-04-27T08:49:21.031Z,1.80
2023-04-27T08:51:48.993Z,1.60
2023-04-27T08:54:16.744Z,1.70
2023-04-27T08:56:44.549Z,1.33
2023-04-27T08:59:16.734Z,1.80
2023-04-27T09:01:45.656Z,1.83
2023-04-27T09:04:13.653Z,1.93
2023-04-27T09:06:43.076Z,2.10
2023-04-27T09:09:11.418Z,2.10
2023-04-27T09:11:40.574Z,2.03
2023-04-27T09:14:18.106Z,2.07
2023-04-27T09:16:46.424Z,2.17
2023-04-27T09:19:25.179Z,1.93
2023-04-27T09:22:04.552Z,2.00
2023-04-27T09:24:32.372Z,2.40
2023-04-27T09:27:00.983Z,2.17
2023-04-27T09:29:36.071Z,1.93
2023-04-27T09:32:16.802Z,2.10
2023-04-27T09:34:45.077Z,2.30
2023-04-27T09:37:14.996Z,1.90
2023-04-27T09:39:43.299Z,1.83
2023-04-27T09:42:13.179Z,1.50
2023-04-27T09:44:40.973Z,2.03
2023-04-27T09:47:09.253Z,1.90
2023-04-27T09:49:37.190Z,2.10
2023-04-27T09:52:05.029Z,2.83
2023-04-27T09:54:36.498Z,2.17
2023-04-27T09:57:13.762Z,2.23
2023-04-27T09:59:58.116Z,2.20
2023-04-27T10:02:30.023Z,2.90
2023-04-27T10:05:30.179Z,2.00
2023-04-27T10:07:58.272Z,2.30
2023-04-27T10:10:27.610Z,2.40
2023-04-27T10:12:59.637Z,2.13
2023-04-27T10:15:29.067Z,2.33
2023-04-27T10:17:59.062Z,2.60
2023-04-27T10:20:31.536Z,2.47
2023-04-27T10:23:00.455Z,2.17
2023-04-27T10:25:31.704Z,2.13
2023-04-27T10:28:01.953Z,2.27
2023-04-27T10:30:33.811Z,2.70
2023-04-27T10:33:07.290Z,2.90
2023-04-27T10:35:36.380Z,2.80
2023-04-27T10:38:08.764Z,2.30
2023-04-27T10:40:38.985Z,2.53
2023-04-27T10:43:11.038Z,2.60
2023-04-27T10:45:38.857Z,2.50
2023-04-27T10:48:07.441Z,2.30
2023-04-27T10:50:35.596Z,2.40
2023-04-27T10:53:05.343Z,2.77
2023-04-27T10:55:33.324Z,2.47
2023-04-27T10:58:04.233Z,2.40
2023-04-27T11:00:33.310Z,2.53
2023-04-27T11:03:12.756Z,2.70
2023-04-27T11:05:41.293Z,2.37
2023-04-27T11:08:10.492Z,2.17
2023-04-27T11:10:41.224Z,2.73
2023-04-27T11:13:12.304Z,2.83
2023-04-27T11:15:47.785Z,2.47
2023-04-27T11:18:16.658Z,2.60
2023-04-27T11:20:45.086Z,3.03
2023-04-27T11:23:12.949Z,2.37
2023-04-27T11:25:40.865Z,2.30
2023-04-27T11:28:19.556Z,2.30
2023-04-27T11:30:47.743Z,2.37
2023-04-27T11:33:15.696Z,2.80
2023-04-27T11:35:43.489Z,2.73
2023-04-27T11:38:18.594Z,2.57
2023-04-27T11:40:47.366Z,2.60
2023-04-27T11:43:15.697Z,2.73
2023-04-27T11:45:45.224Z,2.27
2023-04-27T11:48:17.725Z,2.30
2023-04-27T11:50:48.578Z,2.83
2023-04-27T11:53:18.731Z,2.60
2023-04-27T11:55:53.296Z,2.90
2023-04-27T11:58:22.386Z,2.90
2023-04-27T12:00:51.516Z,2.87
2023-04-27T12:03:19.457Z,2.60
2023-04-27T12:05:51.670Z,2.93
2023-04-27T12:08:19.662Z,2.70
2023-04-27T12:10:47.877Z,3.00
2023-04-27T12:13:15.913Z,2.30
2023-04-27T12:15:44.077Z,2.73
2023-04-27T12:18:13.323Z,2.63
2023-04-27T12:20:41.195Z,3.57
2023-04-27T12:23:08.943Z,3.13
2023-04-27T12:25:36.882Z,2.87
2023-04-27T12:28:05.101Z,2.93
2023-04-27T12:30:34.003Z,2.93
2023-04-27T12:33:02.559Z,3.30
2023-04-27T12:35:32.089Z,2.90
2023-04-27T12:37:59.928Z,2.73
2023-04-27T12:40:27.742Z,3.10
2023-04-27T12:42:56.000Z,3.53
2023-04-27T12:45:23.720Z,2.90
2023-04-27T12:48:02.809Z,3.70
2023-04-27T12:50:33.646Z,3.13
2023-04-27T12:53:01.462Z,3.23
2023-04-27T12:55:33.007Z,3.10
2023-04-27T12:58:02.129Z,2.80
2023-04-27T13:00:30.460Z,3.00
2023-04-27T13:02:58.555Z,2.80
2023-04-27T13:05:26.545Z,2.80
2023-04-27T13:07:55.728Z,3.17
2023-04-27T13:10:23.594Z,3.00
2023-04-27T13:12:51.390Z,3.30
2023-04-27T13:15:19.250Z,2.80
2023-04-27T13:17:47.076Z,3.23
2023-04-27T13:20:15.397Z,3.17
2023-04-27T13:22:43.482Z,3.63
2023-04-27T13:25:13.218Z,3.63
2023-04-27T13:27:40.988Z,3.50
2023-04-27T13:30:10.285Z,3.53
2023-04-27T13:32:38.293Z,3.93
2023-04-27T13:35:07.780Z,3.63
2023-04-27T13:37:35.664Z,3.73
2023-04-27T13:40:05.325Z,3.37
2023-04-27T13:42:35.144Z,4.13
2023-04-27T13:45:04.178Z,4.00
2023-04-27T13:47:36.790Z,3.90
2023-04-27T13:50:06.276Z,3.97
2023-04-27T13:52:34.260Z,3.43
2023-04-27T13:55:02.002Z,4.07
2023-04-27T13:57:29.676Z,4.00
2023-04-27T14:00:00.490Z,3.50
2023-04-27T14:02:29.653Z,3.60
2023-04-27T14:04:57.780Z,3.83
2023-04-27T14:07:25.598Z,3.73
2023-04-27T14:09:53.360Z,3.77
2023-04-27T14:12:21.364Z,3.37
2023-04-27T14:14:49.050Z,3.23
2023-04-27T14:17:18.252Z,3.07
2023-04-27T14:19:46.451Z,3.37
2023-04-27T14:22:14.175Z,3.57
2023-04-27T14:24:42.008Z,3.40
2023-04-27T14:27:09.796Z,3.27
2023-04-27T14:29:37.523Z,3.33
2023-04-27T14:32:13.297Z,3.60
2023-04-27T14:34:42.533Z,3.20
2023-04-27T14:37:10.493Z,3.30
2023-04-27T14:39:40.779Z,3.37
2023-04-27T14:42:09.211Z,3.20
2023-04-27T14:44:37.257Z,3.47
2023-04-27T14:47:05.138Z,2.90
2023-04-27T14:49:33.034Z,3.17
2023-04-27T14:52:04.595Z,3.47
2023-04-27T14:54:32.572Z,3.30
2023-04-27T14:57:01.063Z,3.30
2023-04-27T14:59:28.963Z,3.07
2023-04-27T15:01:56.830Z,3.90
2023-04-27T15:04:25.322Z,3.93
2023-04-27T15:06:53.118Z,3.43
2023-04-27T15:09:22.251Z,3.33
2023-04-27T15:11:49.956Z,3.30
2023-04-27T15:14:17.729Z,3.00
2023-04-27T15:16:45.595Z,3.17
2023-04-27T15:19:13.556Z,3.23
2023-04-27T15:21:41.507Z,3.47
2023-04-27T15:24:09.279Z,2.97
2023-04-27T15:26:38.515Z,3.40
2023-04-27T15:29:06.328Z,3.30
2023-04-27T15:31:34.237Z,3.80
2023-04-27T15:34:01.953Z,3.13
2023-04-27T15:36:29.822Z,3.27
2023-04-27T15:38:58.447Z,3.60
2023-04-27T15:41:26.222Z,3.37
2023-04-27T15:43:55.472Z,3.40
2023-04-27T15:46:23.269Z,3.70
2023-04-27T15:48:51.095Z,3.27
2023-04-27T15:51:18.808Z,2.93
2023-04-27T15:53:46.552Z,3.83
2023-04-27T15:56:14.325Z,3.57
2023-04-27T15:58:42.062Z,3.47
2023-04-27T16:01:11.344Z,3.00
2023-04-27T16:03:39.377Z,3.30
2023-04-27T16:06:07.910Z,3.40
2023-04-27T16:08:36.216Z,3.27
2023-04-27T16:11:03.943Z,3.67
2023-04-27T16:13:32.626Z,3.50
2023-04-27T16:16:00.612Z,3.27
2023-04-27T16:18:29.802Z,3.70
2023-04-27T16:20:58.668Z,3.67
2023-04-27T16:23:26.458Z,3.50
2023-04-27T16:25:54.348Z,3.43
2023-04-27T16:28:22.204Z,3.30
2023-04-27T16:30:50.503Z,3.70
2023-04-27T16:33:21.259Z,3.23
2023-04-27T16:35:50.527Z,3.10
2023-04-27T16:38:18.383Z,3.27
2023-04-27T16:40:46.123Z,3.40
2023-04-27T16:43:13.872Z,3.83
2023-04-27T16:45:42.816Z,3.43
2023-04-27T16:48:12.365Z,3.03
2023-04-27T16:50:41.055Z,3.60
2023-04-27T16:53:13.583Z,3.67
2023-04-27T16:55:41.577Z,3.67
2023-04-27T16:58:09.353Z,3.87
2023-04-27T17:00:37.773Z,3.57
2023-04-27T17:03:05.932Z,3.70
2023-04-27T17:05:33.786Z,3.73
2023-04-27T17:08:03.055Z,3.40
2023-04-27T17:10:33.556Z,3.67
2023-04-27T17:13:01.371Z,3.53
2023-04-27T17:15:29.152Z,4.00
2023-04-27T17:17:57.100Z,3.57
2023-04-27T17:20:25.002Z,3.93
2023-04-27T17:22:52.862Z,3.37
2023-04-27T17:25:20.741Z,4.10
2023-04-27T17:27:50.240Z,3.17
2023-04-27T17:30:18.115Z,3.27
2023-04-27T17:32:45.955Z,3.33
2023-04-27T17:35:13.787Z,3.03
2023-04-27T17:37:41.569Z,3.37
2023-04-27T17:40:11.507Z,3.20
2023-04-27T17:42:39.320Z,3.27
2023-04-27T17:45:10.239Z,3.23
2023-04-27T17:47:38.113Z,3.13
2023-04-27T17:50:06.550Z,3.43
2023-04-27T17:52:34.357Z,3.37
2023-04-27T17:55:02.288Z,3.37
2023-04-27T17:57:30.071Z,3.27
2023-04-27T17:59:57.990Z,3.40
2023-04-27T18:02:27.317Z,3.13
2023-04-27T18:04:55.194Z,3.00
2023-04-27T18:07:24.003Z,3.17
2023-04-27T18:09:52.054Z,3.07
2023-04-27T18:12:19.864Z,3.23
2023-04-27T18:14:47.719Z,2.90
2023-04-27T18:17:15.447Z,3.37
2023-04-27T18:19:44.590Z,3.30
2023-04-27T18:22:12.483Z,3.40
2023-04-27T18:24:40.269Z,3.30
2023-04-27T18:27:08.125Z,3.27
2023-04-27T18:29:35.958Z,2.97
2023-04-27T18:32:05.627Z,3.10
2023-04-27T18:34:33.499Z,3.30
2023-04-27T18:37:02.714Z,3.30
2023-04-27T18:39:30.815Z,3.10
2023-04-27T18:41:58.544Z,2.73
2023-04-27T18:44:26.468Z,3.20
2023-04-27T18:46:54.269Z,3.30
2023-04-27T18:49:22.375Z,3.50
2023-04-27T18:51:50.182Z,2.97
2023-04-27T18:54:19.227Z,2.73
2023-04-27T18:56:50.663Z,2.83
2023-04-27T18:59:18.544Z,3.00
2023-04-27T19:01:46.401Z,3.23
2023-04-27T19:04:14.498Z,2.77
2023-04-27T19:06:42.477Z,3.30
2023-04-27T19:09:10.213Z,2.60
2023-04-27T19:11:40.136Z,2.97
2023-04-27T19:14:08.142Z,2.70
2023-04-27T19:16:36.601Z,3.40
2023-04-27T19:19:04.494Z,3.13
2023-04-27T19:21:32.475Z,2.53
2023-04-27T19:24:00.263Z,3.00
2023-04-27T19:26:29.704Z,2.83
2023-04-27T19:28:58.995Z,3.00
2023-04-27T19:31:27.400Z,3.37
2023-04-27T19:33:55.820Z,3.07
2023-04-27T19:36:31.962Z,3.30
2023-04-27T19:38:59.757Z,3.33
2023-04-27T19:41:27.614Z,2.63
2023-04-27T19:43:55.491Z,2.83
2023-04-27T19:46:24.727Z,3.20
2023-04-27T19:48:54.168Z,3.03
2023-04-27T19:51:21.967Z,2.90
2023-04-27T19:53:50.629Z,2.93
2023-04-27T19:56:18.374Z,3.00
2023-04-27T19:58:46.545Z,2.73
2023-04-27T20:01:14.374Z,2.53
2023-04-27T20:03:43.837Z,2.50
2023-04-27T20:06:11.940Z,2.90
2023-04-27T20:08:39.635Z,2.97
2023-04-27T20:11:07.362Z,3.47
2023-04-27T20:13:35.153Z,2.80
2023-04-27T20:16:03.052Z,2.77
2023-04-27T20:18:31.906Z,3.00
2023-04-27T20:21:01.068Z,3.20
2023-04-27T20:23:28.864Z,3.10
2023-04-27T20:25:56.628Z,3.27
2023-04-27T20:28:24.492Z,3.07
2023-04-27T20:30:52.253Z,2.97
2023-04-27T20:33:19.983Z,3.50
2023-04-27T20:35:48.550Z,3.00
2023-04-27T20:38:21.838Z,2.90
2023-04-27T20:40:52.718Z,2.97
2023-04-27T20:43:21.260Z,2.60
2023-04-27T20:45:49.141Z,3.30
2023-04-27T20:48:17.019Z,3.20
2023-04-27T20:50:45.636Z,2.80
2023-04-27T20:53:13.344Z,3.43
2023-04-27T20:55:42.737Z,3.20
2023-04-27T20:58:10.604Z,3.00
2023-04-27T21:00:38.487Z,3.50
2023-04-27T21:03:07.258Z,3.33
2023-04-27T21:05:35.249Z,3.20
2023-04-27T21:08:03.106Z,3.37
2023-04-27T21:10:31.058Z,2.87
2023-04-27T21:13:02.044Z,3.27
2023-04-27T21:15:29.855Z,2.90
2023-04-27T21:17:57.753Z,2.63
2023-04-27T21:20:25.619Z,3.10
2023-04-27T21:22:53.673Z,3.07
2023-04-27T21:25:23.606Z,3.07
2023-04-27T21:27:51.917Z,2.77
2023-04-27T21:30:21.208Z,3.13
2023-04-27T21:32:49.053Z,3.10
2023-04-27T21:35:16.943Z,3.13
2023-04-27T21:37:44.599Z,2.90
2023-04-27T21:40:13.044Z,2.80
2023-04-27T21:42:40.793Z,3.10
2023-04-27T21:45:09.768Z,3.07
2023-04-27T21:47:39.062Z,3.30
2023-04-27T21:50:08.526Z,2.90
2023-04-27T21:52:36.294Z,3.37
2023-04-27T21:55:04.994Z,3.50
2023-04-27T21:57:33.280Z,3.23
2023-04-27T22:00:01.706Z,3.23
2023-04-27T22:02:30.847Z,2.83
2023-04-27T22:05:00.214Z,3.10
2023-04-27T22:07:28.374Z,2.80
2023-04-27T22:09:56.140Z,3.30
2023-04-27T22:12:24.013Z,3.33
2023-04-27T22:14:51.817Z,3.03
2023-04-27T22:17:19.479Z,3.23
2023-04-27T22:19:47.459Z,2.97
2023-04-27T22:22:16.629Z,3.20
2023-04-27T22:24:44.399Z,3.43
2023-04-27T22:27:12.174Z,3.33
2023-04-27T22:29:40.014Z,3.50
2023-04-27T22:32:08.263Z,3.50
2023-04-27T22:34:37.242Z,3.40
2023-04-27T22:37:05.417Z,3.30
2023-04-27T22:39:34.691Z,3.23
2023-04-27T22:42:02.454Z,3.07
2023-04-27T22:44:30.390Z,3.53
2023-04-27T22:46:58.146Z,3.30
2023-04-27T22:49:25.935Z,3.63
2023-04-27T22:51:53.977Z,3.30
2023-04-27T22:54:21.948Z,3.53
2023-04-27T22:56:51.150Z,3.60
2023-04-27T22:59:22.708Z,3.20
2023-04-27T23:01:50.872Z,3.23
2023-04-27T23:04:19.495Z,3.40
2023-04-27T23:06:48.017Z,2.90
2023-04-27T23:09:15.946Z,3.60
2023-04-27T23:11:43.693Z,3.43
2023-04-27T23:14:14.178Z,3.80
2023-04-27T23:16:42.175Z,3.80
2023-04-27T23:19:09.924Z,3.57
2023-04-27T23:21:37.633Z,3.37
2023-04-27T23:24:06.347Z,3.73
2023-04-27T23:26:34.155Z,3.40
2023-04-27T23:29:01.844Z,3.30
2023-04-27T23:31:31.097Z,3.60
2023-04-27T23:33:59.472Z,3.50
2023-04-27T23:36:28.224Z,3.60
2023-04-27T23:38:56.143Z,3.90
2023-04-27T23:41:24.222Z,3.90
2023-04-27T23:43:51.963Z,3.90
2023-04-27T23:46:19.836Z,3.47
2023-04-27T23:48:48.920Z,3.83
2023-04-27T23:51:16.653Z,3.80
2023-04-27T23:53:44.393Z,3.80
2023-04-27T23:56:17.344Z,3.67
2023-04-27T23:58:45.261Z,4.30
